This is the latest recevied weather packets stored in our database for station/object 9W2CEW-1. If no packets are shown the sender has not sent any weather packets the latest 10 day(s).
| Time | Temp. | Humidity | Pressure | Rain* | Wind** | Luminosity | Snow |
|---|---|---|---|---|---|---|---|
| 1777688343 | 39.44° C | 43% | 1005 hPa | - | - | - | - |
| 1777687445 | 36.11° C | 50% | 1005.1 hPa | - | - | - | - |
| 1777686545 | 35.56° C | 53% | 1005.2 hPa | - | - | - | - |
| 1777685644 | 36.67° C | 51% | 1005 hPa | - | - | - | - |
| 1777684744 | 35.56° C | 57% | 1004.8 hPa | - | - | - | - |
| 1777683844 | 35° C | 58% | 1004.6 hPa | - | - | - | - |
| 1777682944 | 36.11° C | 56% | 1004.3 hPa | - | - | - | - |
| 1777682044 | 33.33° C | 64% | 1004.1 hPa | - | - | - | - |
| 1777681144 | 32.22° C | 68% | 1004 hPa | - | - | - | - |
| 1777680244 | 31.11° C | 72% | 1003.8 hPa | - | - | - | - |
| 1777679344 | 31.67° C | 70% | 1003.6 hPa | - | - | - | - |
| 1777678443 | 32.22° C | 67% | 1003.5 hPa | - | - | - | - |
| 1777677543 | 30.56° C | 71% | 1003.1 hPa | - | - | - | - |
| 1777676643 | 31.11° C | 69% | 1002.8 hPa | - | - | - | - |
| 1777675745 | 31.11° C | 69% | 1002.4 hPa | - | - | - | - |
| 1777674843 | 31.67° C | 67% | 1002.4 hPa | - | - | - | - |
| 1777673944 | 31.67° C | 65% | 1002.4 hPa | - | - | - | - |
| 1777673138 | 31.67° C | 66% | 1002.4 hPa | - | - | - | - |
| 1777673043 | 31.67° C | 66% | 1002.4 hPa | - | - | - | - |
| 1777672212 | 30.56° C | 72% | 1002.6 hPa | - | - | - | - |
| 1777672150 | 30.56° C | 72% | 1002.6 hPa | - | - | - | - |
| 1777671243 | 30.56° C | 71% | 1002.5 hPa | - | - | - | - |
| 1777670343 | 31.67° C | 67% | 1002.4 hPa | - | - | - | - |
| 1777669679 | 31.11° C | 69% | 1002.5 hPa | - | - | - | - |
| 1777669443 | 31.11° C | 69% | 1002.5 hPa | - | - | - | - |
* Rain since midnight (hover to see other rain measurements)
** Current wind speed in m/s (hover to see current wind gust speed)